Powell Point, Texas
Current Conditions -  °F | °C
As of 4:35 AM on Sunday 21 Dec 2014 (Local Time) from KARM Reporting Station
Overcast Overcast  
Wind Chill: 52°   Ceiling: 1700
Heat Index: 52°   Visibility: 10mi
Dew Point: 49°   Wind: 5mph
Humidity: 90%   Direction: 10°N
Pressure: 30.12"   Gusts: NA
Location:  29.4506°N, 96.0068°W
Report Text: KARM 211035Z AUTO 01004KT 10SM OVC017 11/09 A3012 RMK AO2 T01090093
Loading
Personal Weather Stations






























Interactive Weather Map New forecast layout! Learn more

10-Day Weather Forecast

Advertisements
Track Severe Weather on mobile